Terminal Aerodrome Forecast
Issued by NWS

Home | Current Version | Previous Version | Text Only | Print | Product List | Glossary On
Versions: 1 2 3 4 5 6 7 8 9 10 11 12 13 14 15
000
FTUS43 KIWX 301100
TAFSBN
TAF
KSBN 301120Z 3012/3112 22008KT 6SM -SHRA VCTS SCT020 OVC040CB
      TEMPO 3012/3016 3SM SHRA BKN020
     FM301600 26010KT 5SM SHRA OVC020
     FM302000 31010KT 3SM SHRA BR OVC012
     FM310000 03013KT 5SM RA BR OVC008=

USA.gov is the U.S. government's official web portal to all federal, state and local government web resources and services.